Time;durP1;ratioP1;P1;durP2;ratioP2;P2;SDS_P1;SDS_P2;PMS_P1;PMS_P2;Temp;Humidity;BMP_temperature;BMP_pressure;BME280_temperature;BME280_humidity;BME280_pressure;Samples;Min_cycle;Max_cycle;Signal;HPM_P1;HPM_P2
2023/05/18 00:02:07;;;;;;;10.95;4.20;;;6.80;78.90;;;;;;5074363;28;20040;-78
2023/05/18 00:04:34;;;;;;;12.93;4.38;;;6.70;79.00;;;;;;5074357;28;20036;-77
2023/05/18 00:07:03;;;;;;;6.07;3.85;;;6.70;79.10;;;;;;5074138;28;20567;-77
2023/05/18 00:09:30;;;;;;;8.90;3.80;;;6.70;79.20;;;;;;5057846;28;20152;-77
2023/05/18 00:11:57;;;;;;;13.40;4.25;;;6.60;79.30;;;;;;5057295;28;20043;-76
2023/05/18 00:14:23;;;;;;;10.88;3.83;;;6.60;79.40;;;;;;5073541;28;20063;-78
2023/05/18 00:16:48;;;;;;;10.40;3.78;;;6.60;79.50;;;;;;5092708;28;20036;-77
2023/05/18 00:19:15;;;;;;;7.55;3.72;;;6.60;79.50;;;;;;5093854;28;20128;-76
2023/05/18 00:21:41;;;;;;;15.77;4.82;;;6.60;79.50;;;;;;5076796;28;20079;-77
2023/05/18 00:24:09;;;;;;;9.48;3.72;;;6.60;79.70;;;;;;5077223;28;20560;-78
2023/05/18 00:26:40;;;;;;;8.68;3.33;;;6.60;79.50;;;;;;5093535;28;20051;-76
2023/05/18 00:29:06;;;;;;;13.57;3.83;;;6.60;79.60;;;;;;5059545;28;20032;-75
2023/05/18 00:31:37;;;;;;;8.65;4.53;;;6.60;79.90;;;;;;5076030;28;20052;-75
2023/05/18 00:34:10;;;;;;;12.35;4.32;;;6.60;79.90;;;;;;5061069;28;20395;-77
2023/05/18 00:36:36;;;;;;;7.88;3.20;;;6.60;79.90;;;;;;5093974;28;20119;-76
2023/05/18 00:39:03;;;;;;;10.80;3.78;;;6.70;79.50;;;;;;5043623;28;20233;-77
2023/05/18 00:41:30;;;;;;;9.05;3.50;;;6.80;79.90;;;;;;5060492;28;20044;-78
2023/05/18 00:43:56;;;;;;;7.90;3.47;;;6.80;80.00;;;;;;5093824;28;20040;-76
2023/05/18 00:46:23;;;;;;;7.18;3.45;;;6.80;80.20;;;;;;5093470;28;20123;-78
2023/05/18 00:48:53;;;;;;;10.82;4.00;;;6.80;80.40;;;;;;5075406;28;20032;-77
2023/05/18 00:51:22;;;;;;;9.82;4.07;;;6.80;80.30;;;;;;5076785;28;20070;-76
2023/05/18 00:53:52;;;;;;;8.65;3.92;;;6.90;80.50;;;;;;5076819;28;20040;-76
2023/05/18 00:56:18;;;;;;;9.48;3.83;;;6.90;80.50;;;;;;5093134;28;20118;-78
2023/05/18 00:58:44;;;;;;;9.02;4.15;;;6.90;80.50;;;;;;5092928;28;20040;-77
2023/05/18 01:01:10;;;;;;;13.20;4.20;;;6.90;79.90;;;;;;5093153;28;20722;-76
2023/05/18 01:03:37;;;;;;;7.97;3.28;;;6.90;80.30;;;;;;5093054;28;20071;-77
2023/05/18 01:06:08;;;;;;;9.85;4.45;;;7.00;80.60;;;;;;5075146;28;20496;-76
2023/05/18 01:08:35;;;;;;;12.13;3.78;;;7.00;80.30;;;;;;5072380;28;20516;-76
2023/05/18 01:11:20;;;;;;;12.27;3.88;;;7.00;80.30;;;;;;5072780;28;20041;-78
2023/05/18 01:14:05;;;;;;;7.45;3.10;;;7.10;80.20;;;;;;5072930;28;20048;-76
2023/05/18 01:16:47;;;;;;;6.43;3.33;;;7.10;80.10;;;;;;5072686;28;20056;-78
2023/05/18 01:19:27;;;;;;;7.47;3.65;;;7.10;80.20;;;;;;5072780;28;20055;-76
2023/05/18 01:22:15;;;;;;;10.07;4.05;;;7.10;80.30;;;;;;5081645;28;20160;-77
2023/05/18 01:24:42;;;;;;;9.07;3.58;;;7.10;80.50;;;;;;5075936;28;20046;-77
2023/05/18 01:27:08;;;;;;;11.27;3.75;;;7.10;80.60;;;;;;5092432;28;20093;-77
2023/05/18 01:29:34;;;;;;;11.48;3.78;;;7.20;80.00;;;;;;5076250;28;20036;-78
2023/05/18 01:32:00;;;;;;;19.20;3.97;;;7.20;80.30;;;;;;5076095;28;20039;-77
2023/05/18 01:34:26;;;;;;;8.43;4.00;;;7.20;79.90;;;;;;5075986;28;20047;-76
2023/05/18 01:36:52;;;;;;;6.95;3.60;;;7.30;80.10;;;;;;5075732;28;20044;-78
2023/05/18 01:39:18;;;;;;;9.38;4.63;;;7.30;80.20;;;;;;5091933;28;20042;-77
2023/05/18 01:42:04;;;;;;;9.02;3.97;;;7.30;80.40;;;;;;5092485;28;20043;-77
2023/05/18 01:44:37;;;;;;;8.32;4.05;;;7.40;80.50;;;;;;5075991;28;20047;-76
2023/05/18 01:47:10;;;;;;;7.40;4.68;;;7.40;80.50;;;;;;5092689;28;20407;-76
2023/05/18 01:49:48;;;;;;;8.60;3.58;;;7.30;80.10;;;;;;5092637;28;20045;-77
2023/05/18 01:52:19;;;;;;;7.93;4.18;;;7.30;80.00;;;;;;5092356;28;20040;-78
2023/05/18 01:54:52;;;;;;;12.38;4.13;;;7.30;80.20;;;;;;5088849;28;20076;-77
2023/05/18 01:57:22;;;;;;;6.90;4.67;;;7.30;80.40;;;;;;5072305;28;20157;-78
2023/05/18 01:59:50;;;;;;;7.35;4.03;;;7.30;80.10;;;;;;5071963;28;20477;-76
2023/05/18 02:02:16;;;;;;;9.63;4.20;;;7.30;80.30;;;;;;5055614;28;20032;-75
2023/05/18 02:04:42;;;;;;;8.70;3.97;;;7.30;80.50;;;;;;5072439;28;20040;-78
2023/05/18 02:07:07;;;;;;;8.45;4.15;;;7.30;80.80;;;;;;5071912;28;20512;-75
2023/05/18 02:09:33;;;;;;;11.75;4.13;;;7.30;80.60;;;;;;5039541;28;20049;-76
2023/05/18 02:11:59;;;;;;;9.25;4.28;;;7.40;81.00;;;;;;5075614;28;20040;-78
2023/05/18 02:14:25;;;;;;;7.05;4.15;;;7.40;81.10;;;;;;5075519;28;20114;-77
2023/05/18 02:16:51;;;;;;;9.65;4.00;;;7.30;81.20;;;;;;5075635;28;20038;-77
2023/05/18 02:19:18;;;;;;;8.43;3.45;;;7.40;80.70;;;;;;5075633;28;20036;-76
2023/05/18 02:21:44;;;;;;;8.23;4.43;;;7.40;80.40;;;;;;5092101;28;20050;-77
2023/05/18 02:24:11;;;;;;;9.90;4.53;;;7.50;80.60;;;;;;5092100;28;20040;-76
2023/05/18 02:26:37;;;;;;;10.85;4.60;;;7.50;80.60;;;;;;5092048;28;20048;-77
2023/05/18 02:29:05;;;;;;;7.68;4.43;;;7.50;80.70;;;;;;5074441;28;20036;-77
2023/05/18 02:31:31;;;;;;;9.75;4.70;;;7.50;80.60;;;;;;5075466;28;20040;-77
2023/05/18 02:33:57;;;;;;;7.90;4.15;;;7.50;80.40;;;;;;5092158;28;20089;-77
2023/05/18 02:36:22;;;;;;;8.27;4.00;;;7.60;80.70;;;;;;5075505;28;20040;-77
2023/05/18 02:38:48;;;;;;;12.40;5.07;;;7.60;81.00;;;;;;5075570;28;20080;-77
2023/05/18 02:41:14;;;;;;;9.15;4.95;;;7.50;81.20;;;;;;5075214;28;20514;-78
2023/05/18 02:43:40;;;;;;;6.95;3.97;;;7.60;81.30;;;;;;5074579;28;20040;-78
2023/05/18 02:46:05;;;;;;;12.52;4.63;;;7.60;81.40;;;;;;5075195;28;20047;-78
2023/05/18 02:48:31;;;;;;;9.27;4.30;;;7.60;81.50;;;;;;5075219;28;20043;-75
2023/05/18 02:50:57;;;;;;;6.03;3.92;;;7.60;81.30;;;;;;5093026;28;20048;-76
2023/05/18 02:53:23;;;;;;;7.47;4.28;;;7.60;81.00;;;;;;5095998;28;20392;-77
2023/05/18 02:55:55;;;;;;;8.60;4.43;;;7.60;81.30;;;;;;5095654;28;20032;-78
2023/05/18 02:58:24;;;;;;;6.18;4.00;;;7.70;81.30;;;;;;5095514;28;20495;-76
2023/05/18 03:00:53;;;;;;;12.60;4.53;;;7.70;81.60;;;;;;5095383;28;20046;-78
2023/05/18 03:03:19;;;;;;;8.98;4.38;;;7.70;81.00;;;;;;5058561;28;20488;-77
2023/05/18 03:05:45;;;;;;;9.77;4.65;;;7.70;81.10;;;;;;5075080;28;20051;-77
2023/05/18 03:08:11;;;;;;;7.07;4.05;;;7.70;80.70;;;;;;5058160;28;20056;-77
2023/05/18 03:10:37;;;;;;;8.82;4.10;;;7.70;80.70;;;;;;5075022;28;20123;-77
2023/05/18 03:13:03;;;;;;;7.40;4.60;;;7.60;80.80;;;;;;5075009;28;20048;-76
2023/05/18 03:15:31;;;;;;;9.68;4.90;;;7.60;80.90;;;;;;5074565;28;20044;-76
2023/05/18 03:17:59;;;;;;;10.13;4.82;;;7.60;81.10;;;;;;5058645;28;20076;-77
2023/05/18 03:20:25;;;;;;;8.25;4.80;;;7.60;81.20;;;;;;5074554;28;20052;-77
2023/05/18 03:22:51;;;;;;;6.95;4.95;;;7.70;81.40;;;;;;5074788;28;20040;-78
2023/05/18 03:25:17;;;;;;;9.07;5.07;;;7.70;81.60;;;;;;5040959;28;20094;-76
2023/05/18 03:27:42;;;;;;;9.43;4.47;;;7.70;81.60;;;;;;5074506;28;20044;-77
2023/05/18 03:30:09;;;;;;;11.10;4.55;;;7.70;81.70;;;;;;5057907;28;20477;-78
2023/05/18 03:32:35;;;;;;;7.35;4.38;;;7.70;82.00;;;;;;5074416;28;20051;-77
2023/05/18 03:35:03;;;;;;;10.73;4.50;;;7.70;82.00;;;;;;5057511;28;20044;-77
2023/05/18 03:37:29;;;;;;;8.20;4.78;;;7.70;81.90;;;;;;5071644;28;20040;-76
2023/05/18 03:39:59;;;;;;;11.88;4.63;;;7.70;81.40;;;;;;5056884;28;20041;-77
2023/05/18 03:42:25;;;;;;;9.93;5.10;;;7.70;81.40;;;;;;5073636;28;20045;-78
2023/05/18 03:44:51;;;;;;;8.13;4.53;;;7.70;81.70;;;;;;5073413;28;20036;-78
2023/05/18 03:47:17;;;;;;;12.55;5.07;;;7.80;82.00;;;;;;5072014;28;20043;-76
2023/05/18 03:49:43;;;;;;;10.55;5.32;;;7.80;82.20;;;;;;5077069;28;20127;-77
2023/05/18 03:52:09;;;;;;;8.57;4.70;;;7.80;82.00;;;;;;5094587;28;20127;-76
2023/05/18 03:54:35;;;;;;;9.50;4.90;;;7.80;82.10;;;;;;5077698;28;20494;-77
2023/05/18 03:57:00;;;;;;;8.48;5.13;;;7.80;82.60;;;;;;5077759;28;20384;-77
2023/05/18 03:59:26;;;;;;;8.45;4.90;;;7.80;82.40;;;;;;5077911;28;20051;-77
2023/05/18 04:01:52;;;;;;;9.02;5.25;;;7.80;82.20;;;;;;5076601;28;20044;-76
2023/05/18 04:04:22;;;;;;;11.50;5.88;;;7.80;82.00;;;;;;5076891;28;20050;-77
2023/05/18 04:06:50;;;;;;;9.45;4.65;;;7.80;82.10;;;;;;5094268;28;20052;-77
2023/05/18 04:09:17;;;;;;;9.70;5.90;;;7.90;82.40;;;;;;5077274;28;20047;-77
2023/05/18 04:11:43;;;;;;;16.27;5.40;;;7.90;82.30;;;;;;5077558;28;20048;-76
2023/05/18 04:14:11;;;;;;;10.75;4.97;;;7.90;82.10;;;;;;5077753;28;20047;-76
2023/05/18 04:16:36;;;;;;;8.90;4.70;;;7.90;82.00;;;;;;5077169;28;20039;-77
2023/05/18 04:19:05;;;;;;;9.55;4.50;;;7.90;82.60;;;;;;5060798;28;20071;-78
2023/05/18 04:21:34;;;;;;;7.63;5.88;;;7.90;82.90;;;;;;5077275;28;20174;-78
2023/05/18 04:24:05;;;;;;;14.60;5.70;;;7.90;82.60;;;;;;5077347;28;20044;-76
2023/05/18 04:26:35;;;;;;;13.00;4.97;;;8.00;82.50;;;;;;5093965;28;20118;-76
2023/05/18 04:29:01;;;;;;;9.20;4.68;;;8.00;82.20;;;;;;5093802;28;20519;-77
2023/05/18 04:31:28;;;;;;;10.80;5.20;;;8.00;82.20;;;;;;5093838;28;20125;-77
2023/05/18 04:33:56;;;;;;;12.23;5.75;;;8.00;82.10;;;;;;5077629;28;20489;-77
2023/05/18 04:36:24;;;;;;;9.10;5.03;;;8.00;82.20;;;;;;5076789;28;20115;-77
2023/05/18 04:38:51;;;;;;;11.48;5.60;;;8.00;82.30;;;;;;5093896;28;20046;-78
2023/05/18 04:41:19;;;;;;;9.63;5.03;;;8.10;82.40;;;;;;5093715;28;20098;-77
2023/05/18 04:43:46;;;;;;;9.70;5.32;;;8.10;82.40;;;;;;5077028;28;20040;-77
2023/05/18 04:46:12;;;;;;;11.45;5.15;;;8.10;82.50;;;;;;5093384;28;20087;-77
2023/05/18 04:48:38;;;;;;;14.85;5.70;;;8.20;82.50;;;;;;5093380;28;20543;-77
2023/05/18 04:51:05;;;;;;;14.57;6.00;;;8.20;83.10;;;;;;5093444;28;20047;-76
2023/05/18 04:53:32;;;;;;;11.70;5.43;;;8.20;83.30;;;;;;5092230;28;20047;-77
2023/05/18 04:55:59;;;;;;;10.98;4.85;;;8.20;83.20;;;;;;5093096;28;20097;-77
2023/05/18 04:58:26;;;;;;;11.50;4.53;;;8.20;83.00;;;;;;5093172;28;20055;-77
2023/05/18 05:00:52;;;;;;;8.32;4.65;;;8.20;82.70;;;;;;5093152;28;20044;-78
2023/05/18 05:03:18;;;;;;;8.07;4.95;;;8.20;82.60;;;;;;5075997;28;20131;-77
2023/05/18 05:05:44;;;;;;;9.55;4.25;;;8.20;82.50;;;;;;5056054;28;20512;-77
2023/05/18 05:08:10;;;;;;;8.32;3.50;;;8.30;82.40;;;;;;5072633;28;20064;-77
2023/05/18 05:10:36;;;;;;;8.57;3.65;;;8.30;81.80;;;;;;5056465;28;20079;-77
2023/05/18 05:13:03;;;;;;;8.35;3.28;;;8.40;81.90;;;;;;5072524;28;20072;-77
2023/05/18 05:15:28;;;;;;;9.20;3.85;;;8.40;81.30;;;;;;5072468;28;20040;-77
2023/05/18 05:17:54;;;;;;;13.65;6.57;;;8.40;80.80;;;;;;5074065;28;20064;-78
2023/05/18 05:20:20;;;;;;;9.32;3.95;;;8.50;80.50;;;;;;5059577;28;20032;-76
2023/05/18 05:22:46;;;;;;;11.10;3.38;;;8.50;80.50;;;;;;5076461;28;20407;-77
2023/05/18 05:25:11;;;;;;;7.20;3.50;;;8.60;79.70;;;;;;5075744;28;20123;-76
2023/05/18 05:27:37;;;;;;;7.65;3.47;;;8.60;80.20;;;;;;5092673;28;20048;-78
2023/05/18 05:30:04;;;;;;;9.52;3.38;;;8.60;79.20;;;;;;5075839;28;20040;-77
2023/05/18 05:32:29;;;;;;;7.50;3.30;;;8.70;80.20;;;;;;5092525;28;20036;-78
2023/05/18 05:34:55;;;;;;;7.80;3.20;;;8.70;80.20;;;;;;5058089;28;20040;-75
2023/05/18 05:37:21;;;;;;;7.60;3.38;;;8.80;80.00;;;;;;5055583;28;20048;-77
2023/05/18 05:39:46;;;;;;;8.30;3.10;;;8.80;80.10;;;;;;5055758;28;20032;-78
2023/05/18 05:42:12;;;;;;;11.00;8.30;;;8.80;79.30;;;;;;5055576;28;20569;-77
2023/05/18 05:44:39;;;;;;;7.43;3.78;;;8.80;78.40;;;;;;5073280;28;20037;-76
2023/05/18 05:47:05;;;;;;;6.15;3.55;;;8.80;78.40;;;;;;5083224;28;20040;-74
2023/05/18 05:49:31;;;;;;;10.68;3.20;;;8.80;78.60;;;;;;5076021;28;20051;-76
2023/05/18 05:51:57;;;;;;;8.52;2.67;;;8.90;78.00;;;;;;5055219;28;20366;-75
2023/05/18 05:54:23;;;;;;;6.60;2.78;;;9.00;77.70;;;;;;5071960;28;20047;-77
2023/05/18 05:56:48;;;;;;;7.72;3.40;;;9.00;77.40;;;;;;5068176;28;20089;-77
2023/05/18 05:59:14;;;;;;;13.93;4.25;;;9.00;77.30;;;;;;5055922;28;20041;-75
2023/05/18 06:01:40;;;;;;;8.55;3.42;;;9.00;77.00;;;;;;5072050;28;20055;-77
2023/05/18 06:04:09;;;;;;;9.77;2.95;;;9.10;76.80;;;;;;5055185;28;20428;-77
2023/05/18 06:06:37;;;;;;;5.80;3.35;;;9.10;76.70;;;;;;5055700;28;20047;-78
2023/05/18 06:09:03;;;;;;;6.25;3.35;;;9.20;76.40;;;;;;5074670;28;20048;-75
2023/05/18 06:11:30;;;;;;;7.13;3.38;;;9.30;76.20;;;;;;5091999;28;20514;-77
2023/05/18 06:13:56;;;;;;;8.60;3.28;;;9.30;75.60;;;;;;5092209;28;20036;-78
2023/05/18 06:16:22;;;;;;;8.38;3.10;;;9.50;75.90;;;;;;5091959;28;20497;-76
2023/05/18 06:18:47;;;;;;;8.38;2.63;;;9.50;73.60;;;;;;5092003;28;20430;-76
2023/05/18 06:21:14;;;;;;;8.77;3.35;;;9.50;74.70;;;;;;5058391;28;20036;-79
2023/05/18 06:23:40;;;;;;;8.60;3.45;;;9.60;74.70;;;;;;5091512;28;20488;-76
2023/05/18 06:26:06;;;;;;;10.40;2.83;;;9.60;73.70;;;;;;5076467;28;20047;-74
2023/05/18 06:28:32;;;;;;;7.13;2.33;;;9.70;74.50;;;;;;5095973;28;20050;-76
2023/05/18 06:30:58;;;;;;;6.50;2.17;;;9.70;74.10;;;;;;5078834;28;20534;-77
2023/05/18 06:33:23;;;;;;;9.35;2.45;;;9.80;74.20;;;;;;5079068;28;20123;-76
2023/05/18 06:35:50;;;;;;;8.00;2.70;;;9.90;73.70;;;;;;5078796;28;20044;-76
2023/05/18 06:38:15;;;;;;;13.18;3.08;;;9.90;72.10;;;;;;5096012;28;20430;-76
2023/05/18 06:40:41;;;;;;;8.25;2.50;;;9.90;71.70;;;;;;5078203;28;20036;-76
2023/05/18 06:43:07;;;;;;;7.70;2.17;;;10.00;72.30;;;;;;5095621;28;20483;-78
2023/05/18 06:45:33;;;;;;;4.95;2.00;;;10.00;72.40;;;;;;5078825;28;20036;-77
2023/05/18 06:47:58;;;;;;;5.88;2.17;;;10.10;72.70;;;;;;5079009;28;20039;-77
2023/05/18 06:50:24;;;;;;;7.63;2.33;;;10.10;71.50;;;;;;5078740;28;20446;-77
2023/05/18 06:52:50;;;;;;;7.00;2.20;;;10.10;72.10;;;;;;5095416;28;20136;-77
2023/05/18 06:55:16;;;;;;;9.90;2.22;;;10.20;72.10;;;;;;5078675;28;20067;-78
2023/05/18 06:57:42;;;;;;;8.77;2.03;;;10.20;69.00;;;;;;5078071;28;20040;-76
2023/05/18 07:00:09;;;;;;;9.57;2.30;;;10.20;68.00;;;;;;5078512;28;20085;-78
2023/05/18 07:02:35;;;;;;;7.50;2.10;;;10.20;68.00;;;;;;5078193;28;20044;-77
2023/05/18 07:05:04;;;;;;;5.88;1.92;;;10.30;68.20;;;;;;5078013;28;20051;-76
2023/05/18 07:07:30;;;;;;;7.72;1.83;;;10.30;69.60;;;;;;5077969;28;20060;-75
2023/05/18 07:09:56;;;;;;;6.53;2.10;;;10.40;69.70;;;;;;5061311;28;20063;-76
2023/05/18 07:12:22;;;;;;;6.05;1.75;;;10.50;69.50;;;;;;5077473;28;20376;-76
2023/05/18 07:14:48;;;;;;;6.82;2.33;;;10.50;68.50;;;;;;5058300;28;20043;-77
2023/05/18 07:17:13;;;;;;;9.00;2.22;;;10.60;69.30;;;;;;5062918;28;20107;-76
2023/05/18 07:19:39;;;;;;;7.70;2.05;;;10.70;68.80;;;;;;5082096;28;20040;-76
2023/05/18 07:22:06;;;;;;;10.23;2.33;;;10.70;68.00;;;;;;5076851;28;20039;-77
2023/05/18 07:24:32;;;;;;;7.60;2.40;;;10.80;68.30;;;;;;5094676;28;20069;-78
2023/05/18 07:26:57;;;;;;;5.82;1.85;;;10.90;69.20;;;;;;5094430;28;20044;-76
2023/05/18 07:29:23;;;;;;;7.38;2.50;;;11.00;68.80;;;;;;5076661;28;20047;-77
2023/05/18 07:31:49;;;;;;;5.10;1.83;;;11.00;68.80;;;;;;5094318;28;20043;-76
2023/05/18 07:34:16;;;;;;;7.45;2.42;;;11.10;68.60;;;;;;5094217;28;20036;-75
2023/05/18 07:36:42;;;;;;;6.93;2.30;;;11.10;66.70;;;;;;5093768;28;20036;-75
2023/05/18 07:39:07;;;;;;;7.30;2.55;;;11.30;68.20;;;;;;5094621;28;20043;-76
2023/05/18 07:41:34;;;;;;;6.03;2.00;;;11.30;67.80;;;;;;5077584;28;20095;-78
2023/05/18 07:44:00;;;;;;;10.82;3.00;;;11.40;68.20;;;;;;5077647;28;20040;-76
2023/05/18 07:46:26;;;;;;;6.47;2.00;;;11.50;67.40;;;;;;5064737;28;20085;-78
2023/05/18 07:48:52;;;;;;;8.45;2.15;;;11.60;67.80;;;;;;5074003;28;20040;-77
2023/05/18 07:51:17;;;;;;;6.85;2.70;;;11.60;66.20;;;;;;5057367;28;20403;-77
2023/05/18 07:53:44;;;;;;;8.52;2.88;;;11.70;67.30;;;;;;5024124;28;20145;-75
2023/05/18 07:56:11;;;;;;;8.35;1.83;;;11.60;62.80;;;;;;5057530;28;20048;-77
2023/05/18 07:58:36;;;;;;;7.78;1.95;;;11.60;63.80;;;;;;5073564;28;20072;-77
2023/05/18 08:01:03;;;;;;;5.55;2.08;;;11.80;65.50;;;;;;5073977;28;20182;-78
2023/05/18 08:03:28;;;;;;;8.02;2.10;;;11.90;65.80;;;;;;5067123;28;20036;-79
2023/05/18 08:05:54;;;;;;;6.47;1.95;;;12.00;65.30;;;;;;5094001;28;20503;-78
2023/05/18 08:08:20;;;;;;;7.63;2.65;;;12.00;63.20;;;;;;5076731;28;20135;-78
2023/05/18 08:10:46;;;;;;;6.55;2.10;;;12.00;64.20;;;;;;5093778;28;20562;-79
2023/05/18 08:13:11;;;;;;;4.93;1.75;;;12.10;64.00;;;;;;5094059;28;20119;-77
2023/05/18 08:15:39;;;;;;;6.70;2.30;;;12.10;63.80;;;;;;5077837;28;20036;-77
2023/05/18 08:18:05;;;;;;;8.35;2.83;;;12.20;64.50;;;;;;5093790;28;20044;-77
2023/05/18 08:20:31;;;;;;;7.68;1.77;;;12.30;63.80;;;;;;5072536;28;20065;-76
2023/05/18 08:22:57;;;;;;;5.65;2.00;;;12.50;64.10;;;;;;5057000;28;20099;-77
2023/05/18 08:25:24;;;;;;;5.25;2.50;;;12.50;63.60;;;;;;5056733;28;20087;-77
2023/05/18 08:27:49;;;;;;;5.18;2.15;;;12.50;63.60;;;;;;5056791;28;20404;-76
2023/05/18 08:30:15;;;;;;;8.38;2.10;;;12.50;63.10;;;;;;5056401;28;20043;-77
2023/05/18 08:32:41;;;;;;;7.82;2.15;;;12.60;63.20;;;;;;5056390;28;20040;-77
2023/05/18 08:35:08;;;;;;;4.82;2.10;;;12.70;63.10;;;;;;5039810;28;20033;-76
2023/05/18 08:37:36;;;;;;;6.93;2.22;;;12.80;63.50;;;;;;5072170;28;20048;-75
2023/05/18 08:40:06;;;;;;;6.10;2.15;;;12.90;62.80;;;;;;5071185;28;20109;-78
2023/05/18 08:42:31;;;;;;;7.60;2.42;;;12.90;62.40;;;;;;5064012;28;20048;-78
2023/05/18 08:45:29;;;;;;;4.05;2.10;;;13.00;62.60;;;;;;5059882;28;20047;-78
2023/05/18 08:47:56;;;;;;;5.50;1.90;;;13.00;61.10;;;;;;5063711;28;20416;-78
2023/05/18 08:50:25;;;;;;;11.07;2.72;;;13.00;62.80;;;;;;5092885;28;20040;-77
2023/05/18 08:52:54;;;;;;;7.50;2.10;;;13.10;62.80;;;;;;5076308;28;20040;-79
2023/05/18 08:55:22;;;;;;;8.02;2.28;;;13.10;62.50;;;;;;5074671;28;20500;-78
2023/05/18 08:57:54;;;;;;;5.80;2.08;;;13.20;62.80;;;;;;5072821;28;20048;-78
2023/05/18 09:00:22;;;;;;;9.23;2.42;;;13.40;62.90;;;;;;5072755;28;20507;-77
2023/05/18 09:02:49;;;;;;;7.13;2.42;;;13.50;62.30;;;;;;5079453;28;20055;-79
2023/05/18 09:05:15;;;;;;;7.10;3.00;;;13.60;61.60;;;;;;5076007;28;20048;-77
2023/05/18 09:07:43;;;;;;;7.15;2.50;;;13.70;61.30;;;;;;5078261;28;20404;-75
2023/05/18 09:10:10;;;;;;;7.22;2.42;;;13.90;61.70;;;;;;5077016;28;20075;-77
2023/05/18 09:12:37;;;;;;;7.32;2.60;;;14.00;60.70;;;;;;5074257;28;20044;-77
2023/05/18 09:15:03;;;;;;;6.07;2.50;;;14.10;60.70;;;;;;5060564;28;20036;-77
2023/05/18 09:17:29;;;;;;;4.50;2.42;;;14.20;60.40;;;;;;5087165;28;20016;-78
2023/05/18 09:19:55;;;;;;;7.53;2.80;;;14.30;60.60;;;;;;5098036;28;20055;-77
2023/05/18 09:22:20;;;;;;;6.30;3.05;;;14.30;56.50;;;;;;5097317;28;20033;-78
2023/05/18 09:24:47;;;;;;;7.13;2.60;;;14.20;57.90;;;;;;5081910;28;20498;-78
2023/05/18 09:27:13;;;;;;;8.05;2.40;;;14.30;58.30;;;;;;5099405;28;20093;-76
2023/05/18 09:29:54;;;;;;;7.10;2.95;;;14.50;59.20;;;;;;5102032;28;20028;-75
2023/05/18 09:32:21;;;;;;;10.50;2.72;;;14.40;58.10;;;;;;5119085;28;20020;-76
2023/05/18 09:34:48;;;;;;;5.30;2.65;;;14.20;56.70;;;;;;5117889;28;20036;-78
2023/05/18 09:37:20;;;;;;;6.47;3.08;;;14.30;57.90;;;;;;5118200;28;20024;-77
2023/05/18 09:40:05;;;;;;;10.00;2.75;;;14.30;59.00;;;;;;5098550;28;20040;-76
2023/05/18 09:42:36;;;;;;;6.63;2.63;;;14.50;59.50;;;;;;5095450;28;20040;-77
2023/05/18 09:45:24;;;;;;;9.38;3.47;;;14.30;57.90;;;;;;5097187;28;20036;-77
2023/05/18 09:47:50;;;;;;;9.05;2.75;;;14.40;58.30;;;;;;5097669;28;20153;-77
2023/05/18 09:50:20;;;;;;;7.13;2.65;;;14.30;58.20;;;;;;5114083;28;20036;-78
2023/05/18 09:52:48;;;;;;;8.32;2.90;;;14.30;58.50;;;;;;5111305;28;20032;-76
2023/05/18 09:55:18;;;;;;;10.70;3.63;;;14.40;59.50;;;;;;5112563;28;20067;-77
2023/05/18 09:57:46;;;;;;;8.57;2.92;;;14.40;59.30;;;;;;5113458;28;20048;-78
2023/05/18 10:00:14;;;;;;;9.40;2.90;;;14.40;59.30;;;;;;5107585;28;20040;-77
2023/05/18 10:02:47;;;;;;;7.60;3.22;;;14.20;59.10;;;;;;5099001;28;20063;-76
2023/05/18 10:05:30;;;;;;;10.00;4.10;;;14.30;59.40;;;;;;5081690;28;20040;-77
2023/05/18 10:07:57;;;;;;;8.10;2.55;;;14.30;57.80;;;;;;5097851;28;20078;-76
2023/05/18 10:10:26;;;;;;;5.80;2.97;;;14.20;59.00;;;;;;5081152;28;20052;-76
2023/05/18 10:12:54;;;;;;;9.73;3.28;;;14.30;59.70;;;;;;5081381;28;20036;-77
2023/05/18 10:15:21;;;;;;;5.20;2.25;;;14.20;58.60;;;;;;5080230;28;20443;-77
2023/05/18 10:17:49;;;;;;;7.40;3.25;;;14.30;59.20;;;;;;5080286;28;20043;-78
2023/05/18 10:20:21;;;;;;;11.48;3.25;;;14.40;59.40;;;;;;5063797;28;20043;-77
2023/05/18 10:22:48;;;;;;;6.03;2.67;;;14.40;59.50;;;;;;5080266;28;20043;-78
2023/05/18 10:25:22;;;;;;;8.52;3.03;;;14.40;59.30;;;;;;5081072;28;20044;-78
2023/05/18 10:27:49;;;;;;;8.40;2.90;;;14.50;58.30;;;;;;5097344;28;20047;-78
2023/05/18 10:30:18;;;;;;;8.55;3.25;;;14.50;58.90;;;;;;5064179;28;20036;-78
2023/05/18 10:32:45;;;;;;;7.60;2.80;;;14.70;59.30;;;;;;5096595;28;20178;-78
2023/05/18 10:35:12;;;;;;;8.45;3.03;;;14.70;58.30;;;;;;5080184;28;20036;-77
2023/05/18 10:37:40;;;;;;;9.88;4.13;;;14.80;58.10;;;;;;5097364;28;20044;-77
2023/05/18 10:40:08;;;;;;;7.13;2.85;;;14.90;59.10;;;;;;5080798;28;20032;-77
2023/05/18 10:42:35;;;;;;;5.95;2.42;;;15.10;59.20;;;;;;5080128;28;20113;-77
2023/05/18 10:45:02;;;;;;;8.90;2.78;;;15.20;58.50;;;;;;5096802;28;20119;-77
2023/05/18 10:47:28;;;;;;;6.20;2.60;;;15.20;57.80;;;;;;5080039;28;20061;-78
2023/05/18 10:49:54;;;;;;;6.20;2.88;;;15.30;58.60;;;;;;5079599;28;20036;-78
2023/05/18 10:52:20;;;;;;;8.10;2.83;;;15.30;58.80;;;;;;5079901;28;20036;-77
2023/05/18 10:54:47;;;;;;;9.18;3.42;;;15.30;58.50;;;;;;5080101;28;20040;-78
2023/05/18 10:57:16;;;;;;;8.85;3.10;;;15.40;58.10;;;;;;5096696;28;20040;-78
2023/05/18 10:59:43;;;;;;;8.70;2.72;;;15.40;57.40;;;;;;5096425;28;20646;-79
2023/05/18 11:02:15;;;;;;;7.95;2.90;;;15.30;57.50;;;;;;5096683;28;20487;-79
2023/05/18 11:04:41;;;;;;;9.18;2.92;;;15.50;57.10;;;;;;5096387;28;20067;-78
2023/05/18 11:07:11;;;;;;;5.95;3.03;;;15.70;57.10;;;;;;5086086;28;20433;-77
2023/05/18 11:09:40;;;;;;;8.48;2.42;;;15.70;56.40;;;;;;5075797;28;20401;-78
2023/05/18 11:12:11;;;;;;;3.58;2.53;;;15.90;56.30;;;;;;5042298;28;20052;-77
2023/05/18 11:14:49;;;;;;;8.32;3.53;;;16.10;56.20;;;;;;5059430;28;20051;-78
2023/05/18 11:17:24;;;;;;;7.18;2.90;;;16.30;56.60;;;;;;5075306;28;20047;-77
2023/05/18 11:20:08;;;;;;;;;;;16.50;57.50;;;;;;5076330;28;20513;-77
2023/05/18 11:22:46;;;;;;;8.73;3.00;;;16.60;57.00;;;;;;5085903;28;19970;-77
2023/05/18 11:25:42;;;;;;;7.55;2.80;;;16.70;55.20;;;;;;5079406;28;20040;-77
2023/05/18 11:28:10;;;;;;;7.38;3.15;;;16.70;55.60;;;;;;5082614;28;20048;-78
2023/05/18 11:30:36;;;;;;;7.90;3.20;;;16.70;55.00;;;;;;5078744;28;20032;-78
2023/05/18 11:33:27;;;;;;;9.35;3.28;;;16.70;54.50;;;;;;5078630;28;20036;-78
2023/05/18 11:36:13;;;;;;;5.93;3.05;;;16.70;54.70;;;;;;5078656;28;20434;-77
2023/05/18 11:39:05;;;;;;;7.47;3.30;;;16.80;55.80;;;;;;5091306;28;20036;-78
2023/05/18 11:41:43;;;;;;;8.35;3.22;;;16.70;54.90;;;;;;5058893;28;20055;-78
2023/05/18 11:44:13;;;;;;;8.98;2.83;;;16.70;54.70;;;;;;5058935;28;20040;-78
2023/05/18 11:46:50;;;;;;;6.40;3.10;;;16.60;53.60;;;;;;5075014;28;20098;-77
2023/05/18 11:49:17;;;;;;;10.45;3.85;;;16.40;53.70;;;;;;5058124;28;20041;-78
2023/05/18 11:51:59;;;;;;;9.93;3.13;;;16.40;55.30;;;;;;5058434;28;20051;-78
2023/05/18 11:54:26;;;;;;;8.30;2.97;;;16.40;52.90;;;;;;5062553;28;20028;-78
2023/05/18 11:56:52;;;;;;;8.93;2.85;;;16.50;55.20;;;;;;5095103;28;20040;-77
2023/05/18 11:59:30;;;;;;;8.05;2.75;;;16.40;55.40;;;;;;5093590;28;20448;-77
2023/05/18 12:01:59;;;;;;;11.60;2.85;;;16.40;54.30;;;;;;5094595;28;20098;-77
2023/05/18 12:04:27;;;;;;;6.80;2.80;;;16.40;55.50;;;;;;5095353;28;20120;-78
2023/05/18 12:06:55;;;;;;;6.30;2.83;;;16.40;54.50;;;;;;5095063;28;20079;-77
2023/05/18 12:09:21;;;;;;;9.25;3.53;;;16.30;54.20;;;;;;5094791;28;20562;-78
2023/05/18 12:11:46;;;;;;;9.50;3.70;;;16.40;54.80;;;;;;5094657;28;20036;-78
2023/05/18 12:14:13;;;;;;;8.70;2.50;;;16.40;55.90;;;;;;5041253;28;20040;-79
2023/05/18 12:16:39;;;;;;;6.55;2.72;;;16.50;55.80;;;;;;5057990;28;20048;-78
2023/05/18 12:19:08;;;;;;;8.52;3.28;;;16.60;55.70;;;;;;5058599;28;20473;-78
2023/05/18 12:21:37;;;;;;;6.82;3.03;;;16.60;55.30;;;;;;5057559;28;20135;-78
2023/05/18 12:24:03;;;;;;;9.35;2.72;;;16.70;55.50;;;;;;5056509;28;20040;-78
2023/05/18 12:26:30;;;;;;;7.25;3.15;;;16.90;56.10;;;;;;5074243;28;20037;-77
2023/05/18 12:28:58;;;;;;;7.82;3.15;;;17.00;57.00;;;;;;5074163;28;20047;-78
2023/05/18 12:31:25;;;;;;;5.03;2.80;;;17.10;55.30;;;;;;5045970;28;20503;-78
2023/05/18 12:33:53;;;;;;;4.97;2.67;;;17.20;55.60;;;;;;5074458;28;20484;-77
2023/05/18 12:36:19;;;;;;;7.35;3.03;;;17.50;56.60;;;;;;5074559;28;20094;-78
2023/05/18 12:38:50;;;;;;;7.55;3.00;;;17.70;55.80;;;;;;5057559;28;20048;-77
2023/05/18 12:41:25;;;;;;;6.22;3.22;;;17.70;54.60;;;;;;5074182;28;20499;-77
2023/05/18 12:43:55;;;;;;;5.80;2.67;;;17.60;54.10;;;;;;5073989;28;20488;-76
2023/05/18 12:46:27;;;;;;;9.63;2.97;;;17.60;53.50;;;;;;5088043;27;1989130;-77
2023/05/18 12:48:57;;;;;;;8.48;2.85;;;17.50;54.70;;;;;;5120886;28;20048;-78
2023/05/18 12:51:29;;;;;;;8.57;2.70;;;17.50;55.30;;;;;;5098142;28;20043;-77
2023/05/18 12:54:05;;;;;;;6.65;2.80;;;17.50;55.10;;;;;;5098716;28;20186;-79
2023/05/18 12:56:51;;;;;;;8.73;2.90;;;17.40;54.10;;;;;;5086218;28;20046;-77